This is the latest recevied weather packets stored in our database for station/object N7TUG-8. If no packets are shown the sender has not sent any weather packets the latest 10 day(s).
| Time | Temp. | Humidity | Pressure | Rain* | Wind** | Luminosity | Snow |
|---|---|---|---|---|---|---|---|
| 1777647887 | 12.78° C | 84% | 1017 hPa | 0 mm | 1.34 m/s, 259° | - | - |
| 1777647486 | 12.78° C | 84% | 1016.9 hPa | 0 mm | 1.34 m/s, 252° | - | - |
| 1777646578 | 12.22° C | 85% | 1016.8 hPa | 0 mm | 0.89 m/s, 258° | - | - |
| 1777645643 | 12.22° C | 83% | 1016.7 hPa | 0 mm | 0.89 m/s, 247° | - | - |
| 1777645578 | 12.22° C | 83% | 1016.7 hPa | 0 mm | 0.89 m/s, 247° | - | - |
| 1777645542 | 12.22° C | 83% | 1016.7 hPa | 0 mm | 0.89 m/s, 247° | - | - |
| 1777644827 | 13.33° C | 79% | 1016.6 hPa | 0 mm | 0.89 m/s, 242° | - | - |
| 1777644766 | 13.33° C | 79% | 1016.6 hPa | 0 mm | 0.89 m/s, 242° | - | - |
| 1777644052 | 13.33° C | 79% | 1016.4 hPa | 0 mm | 0.45 m/s, 235° | - | - |
| 1777643976 | 13.33° C | 80% | 1016.4 hPa | 0 mm | 0.45 m/s, 254° | - | - |
| 1777643181 | 12.22° C | 82% | 1016.3 hPa | 0 mm | 0.45 m/s, 318° | - | - |
| 1777642437 | 12.22° C | 84% | 1016.2 hPa | 0 mm | 0.45 m/s, 228° | - | - |
| 1777642321 | 12.22° C | 84% | 1016.2 hPa | 0 mm | 0.45 m/s, 228° | - | - |
| 1777641572 | 10.56° C | 85% | 1016.1 hPa | 0 mm | 0.45 m/s, 333° | - | - |
| 1777641416 | 10.56° C | 85% | 1016.1 hPa | 0 mm | 0.45 m/s, 333° | - | - |
| 1777640727 | 10.56° C | 84% | 1016.1 hPa | 0 mm | 0.45 m/s, 342° | - | - |
| 1777640571 | 11.11° C | 84% | 1016.1 hPa | 0 mm | 0.45 m/s, 304° | - | - |
| 1777639691 | 11.67° C | 84% | 1016 hPa | 0 mm | 0 m/s | - | - |
| 1777639162 | 11.67° C | 84% | 1015.9 hPa | 0 mm | 0.45 m/s, 234° | - | - |
| 1777638901 | 11.67° C | 84% | 1015.8 hPa | 0 mm | 0.45 m/s, 235° | - | - |
| 1777638377 | 11.67° C | 84% | 1015.9 hPa | 0 mm | 0.45 m/s, 240° | - | - |
| 1777638061 | 11.67° C | 85% | 1015.9 hPa | 0 mm | 0.45 m/s, 244° | - | - |
| 1777637572 | 11.67° C | 85% | 1015.9 hPa | 0 mm | 0.89 m/s, 318° | - | - |
| 1777637196 | 11.67° C | 85% | 1015.9 hPa | 0 mm | 0.45 m/s, 5° | - | - |
| 1777636687 | 12.22° C | 84% | 1015.8 hPa | 0 mm | 0.45 m/s, 245° | - | - |
* Rain latest hour (hover to see other rain measurements)
** Current wind speed in m/s (hover to see current wind gust speed)